sensor_id;sensor_type;location;lat;lon;timestamp;pressure;altitude;pressure_sealevel;temperature;humidity
12146;BME280;6136;47.032;15.398;2023-02-28T00:01:27;98417.06;;;1.07;69.21
12146;BME280;6136;47.032;15.398;2023-02-28T00:03:57;98417.09;;;1.06;68.40
12146;BME280;6136;47.032;15.398;2023-02-28T00:06:25;98414.53;;;1.03;68.60
12146;BME280;6136;47.032;15.398;2023-02-28T00:08:54;98410.19;;;1.02;68.47
12146;BME280;6136;47.032;15.398;2023-02-28T00:11:22;98422.38;;;1.01;69.64
12146;BME280;6136;47.032;15.398;2023-02-28T00:13:52;98414.53;;;1.01;69.86
12146;BME280;6136;47.032;15.398;2023-02-28T00:16:21;98413.84;;;0.83;71.31
12146;BME280;6136;47.032;15.398;2023-02-28T00:18:50;98417.31;;;0.83;71.15
12146;BME280;6136;47.032;15.398;2023-02-28T00:21:19;98417.31;;;0.85;71.77
12146;BME280;6136;47.032;15.398;2023-02-28T00:23:47;98423.53;;;0.73;71.99
12146;BME280;6136;47.032;15.398;2023-02-28T00:26:16;98417.53;;;0.63;71.82
12146;BME280;6136;47.032;15.398;2023-02-28T00:28:48;98424.34;;;0.75;72.81
12146;BME280;6136;47.032;15.398;2023-02-28T00:31:17;98426.94;;;0.81;72.06
12146;BME280;6136;47.032;15.398;2023-02-28T00:33:47;98431.16;;;0.90;72.48
12146;BME280;6136;47.032;15.398;2023-02-28T00:36:15;98428.78;;;0.67;72.99
12146;BME280;6136;47.032;15.398;2023-02-28T00:38:43;98423.75;;;0.49;72.58
12146;BME280;6136;47.032;15.398;2023-02-28T00:41:11;98434.22;;;0.43;73.54
12146;BME280;6136;47.032;15.398;2023-02-28T00:43:40;98430.72;;;0.47;72.32
12146;BME280;6136;47.032;15.398;2023-02-28T00:46:10;98422.88;;;0.47;72.81
12146;BME280;6136;47.032;15.398;2023-02-28T00:48:39;98426.28;;;0.55;73.18
12146;BME280;6136;47.032;15.398;2023-02-28T00:51:07;98432.31;;;0.60;72.94
12146;BME280;6136;47.032;15.398;2023-02-28T00:53:36;98421.00;;;0.64;73.35
12146;BME280;6136;47.032;15.398;2023-02-28T00:56:04;98419.22;;;0.67;73.72
12146;BME280;6136;47.032;15.398;2023-02-28T00:58:33;98420.09;;;0.68;73.52
12146;BME280;6136;47.032;15.398;2023-02-28T01:01:01;98420.00;;;0.77;72.61
12146;BME280;6136;47.032;15.398;2023-02-28T01:03:30;98421.66;;;0.84;74.19
12146;BME280;6136;47.032;15.398;2023-02-28T01:05:59;98410.19;;;1.00;73.89
12146;BME280;6136;47.032;15.398;2023-02-28T01:08:28;98415.44;;;0.99;73.87
12146;BME280;6136;47.032;15.398;2023-02-28T01:10:56;98417.16;;;0.98;73.80
12146;BME280;6136;47.032;15.398;2023-02-28T01:13:24;98414.56;;;1.00;72.77
12146;BME280;6136;47.032;15.398;2023-02-28T01:15:54;98414.56;;;0.98;72.31
12146;BME280;6136;47.032;15.398;2023-02-28T01:18:24;98416.50;;;0.81;72.95
12146;BME280;6136;47.032;15.398;2023-02-28T01:20:52;98423.41;;;0.85;72.72
12146;BME280;6136;47.032;15.398;2023-02-28T01:23:23;98413.84;;;0.83;72.92
12146;BME280;6136;47.032;15.398;2023-02-28T01:25:52;98417.25;;;0.89;72.68
12146;BME280;6136;47.032;15.398;2023-02-28T01:28:20;98418.13;;;0.91;71.88
12146;BME280;6136;47.032;15.398;2023-02-28T01:30:50;98410.25;;;0.96;70.28
12146;BME280;6136;47.032;15.398;2023-02-28T01:33:18;98413.69;;;1.01;72.91
12146;BME280;6136;47.032;15.398;2023-02-28T01:40:31;98408.34;;;1.10;71.80
12146;BME280;6136;47.032;15.398;2023-02-28T01:42:59;98408.34;;;1.10;72.78
12146;BME280;6136;47.032;15.398;2023-02-28T01:45:29;98414.47;;;1.09;70.26
12146;BME280;6136;47.032;15.398;2023-02-28T01:48:00;98406.63;;;1.07;69.82
12146;BME280;6136;47.032;15.398;2023-02-28T01:50:39;98418.03;;;0.99;71.50
12146;BME280;6136;47.032;15.398;2023-02-28T01:53:11;98413.81;;;0.89;70.20
12146;BME280;6136;47.032;15.398;2023-02-28T01:55:45;98413.03;;;0.79;70.28
12146;BME280;6136;47.032;15.398;2023-02-28T01:58:15;98420.00;;;0.75;70.96
12146;BME280;6136;47.032;15.398;2023-02-28T02:00:44;98416.56;;;0.73;70.65
12146;BME280;6136;47.032;15.398;2023-02-28T02:03:15;98413.13;;;0.70;70.17
12146;BME280;6136;47.032;15.398;2023-02-28T02:05:46;98419.19;;;0.72;71.60
12146;BME280;6136;47.032;15.398;2023-02-28T02:08:17;98421.81;;;0.70;71.53
12146;BME280;6136;47.032;15.398;2023-02-28T02:10:50;98414.00;;;0.67;72.04
12146;BME280;6136;47.032;15.398;2023-02-28T02:13:42;98417.53;;;0.63;71.00
12146;BME280;6136;47.032;15.398;2023-02-28T02:16:22;98420.00;;;0.77;69.65
12146;BME280;6136;47.032;15.398;2023-02-28T02:18:53;98406.06;;;0.81;70.95
12146;BME280;6136;47.032;15.398;2023-02-28T02:21:40;98412.91;;;0.90;71.45
12146;BME280;6136;47.032;15.398;2023-02-28T02:27:38;98417.16;;;1.00;70.57
12146;BME280;6136;47.032;15.398;2023-02-28T02:30:28;98413.38;;;1.27;69.50
12146;BME280;6136;47.032;15.398;2023-02-28T02:33:28;98411.59;;;1.29;70.50
12146;BME280;6136;47.032;15.398;2023-02-28T02:36:12;98402.13;;;1.22;70.69
12146;BME280;6136;47.032;15.398;2023-02-28T02:38:46;98411.69;;;1.21;70.84
12146;BME280;6136;47.032;15.398;2023-02-28T02:41:19;98414.31;;;1.21;70.80
12146;BME280;6136;47.032;15.398;2023-02-28T02:43:52;98416.16;;;1.11;69.33
12146;BME280;6136;47.032;15.398;2023-02-28T02:46:26;98404.97;;;0.99;70.70
12146;BME280;6136;47.032;15.398;2023-02-28T02:49:00;98408.53;;;0.92;70.74
12146;BME280;6136;47.032;15.398;2023-02-28T02:51:32;98409.47;;;0.88;71.06
12146;BME280;6136;47.032;15.398;2023-02-28T02:54:04;98412.16;;;0.78;72.89
12146;BME280;6136;47.032;15.398;2023-02-28T02:56:35;98415.66;;;0.77;72.48
12146;BME280;6136;47.032;15.398;2023-02-28T02:59:07;98419.88;;;0.89;72.76
12146;BME280;6136;47.032;15.398;2023-02-28T03:01:38;98416.44;;;0.87;71.56
12146;BME280;6136;47.032;15.398;2023-02-28T03:04:10;98426.00;;;0.88;72.80
12146;BME280;6136;47.032;15.398;2023-02-28T03:06:41;98414.59;;;0.95;73.41
12146;BME280;6136;47.032;15.398;2023-02-28T03:09:09;98421.56;;;0.93;73.88
12146;BME280;6136;47.032;15.398;2023-02-28T03:11:39;98414.56;;;0.97;73.96
12146;BME280;6136;47.032;15.398;2023-02-28T03:14:24;98416.34;;;0.96;74.00
12146;BME280;6136;47.032;15.398;2023-02-28T03:17:13;98418.03;;;0.97;73.68
12146;BME280;6136;47.032;15.398;2023-02-28T03:19:53;98416.47;;;0.83;74.00
12146;BME280;6136;47.032;15.398;2023-02-28T03:22:44;98418.25;;;0.76;74.43
12146;BME280;6136;47.032;15.398;2023-02-28T03:25:20;98422.53;;;0.83;74.39
12146;BME280;6136;47.032;15.398;2023-02-28T03:27:58;98418.25;;;0.79;75.38
12146;BME280;6136;47.032;15.398;2023-02-28T03:30:34;98416.44;;;0.87;74.87
12146;BME280;6136;47.032;15.398;2023-02-28T03:33:07;98423.31;;;0.96;76.31
12146;BME280;6136;47.032;15.398;2023-02-28T03:35:39;98421.50;;;1.02;77.02
12146;BME280;6136;47.032;15.398;2023-02-28T03:38:16;98423.25;;;0.97;77.51
12146;BME280;6136;47.032;15.398;2023-02-28T03:40:49;98423.25;;;0.97;76.99
12146;BME280;6136;47.032;15.398;2023-02-28T03:43:24;98424.03;;;1.07;77.89
12146;BME280;6136;47.032;15.398;2023-02-28T03:45:55;98421.34;;;1.14;76.56
12146;BME280;6136;47.032;15.398;2023-02-28T03:48:27;98419.66;;;1.10;76.11
12146;BME280;6136;47.032;15.398;2023-02-28T03:50:59;98420.47;;;1.14;74.90
12146;BME280;6136;47.032;15.398;2023-02-28T03:53:34;98426.63;;;1.08;75.10
12146;BME280;6136;47.032;15.398;2023-02-28T03:56:07;98424.06;;;1.04;75.95
12146;BME280;6136;47.032;15.398;2023-02-28T03:58:44;98414.53;;;1.03;77.28
12146;BME280;6136;47.032;15.398;2023-02-28T04:01:20;98428.47;;;1.00;77.90
12146;BME280;6136;47.032;15.398;2023-02-28T04:03:49;98421.44;;;1.05;79.11
12146;BME280;6136;47.032;15.398;2023-02-28T04:06:20;98426.50;;;1.19;76.93
12146;BME280;6136;47.032;15.398;2023-02-28T04:08:50;98421.59;;;0.92;79.34
12146;BME280;6136;47.032;15.398;2023-02-28T04:11:22;98430.22;;;1.00;79.31
12146;BME280;6136;47.032;15.398;2023-02-28T04:13:50;98427.69;;;0.89;78.36
12146;BME280;6136;47.032;15.398;2023-02-28T04:16:19;98434.63;;;0.92;78.52
12146;BME280;6136;47.032;15.398;2023-02-28T04:19:02;98446.81;;;0.91;77.40
12146;BME280;6136;47.032;15.398;2023-02-28T04:21:34;98439.00;;;0.91;78.05
12146;BME280;6136;47.032;15.398;2023-02-28T04:24:04;98443.34;;;0.92;77.52
12146;BME280;6136;47.032;15.398;2023-02-28T04:26:34;98449.44;;;0.91;77.75
12146;BME280;6136;47.032;15.398;2023-02-28T04:29:04;98453.03;;;0.78;77.74
12146;BME280;6136;47.032;15.398;2023-02-28T04:31:34;98454.84;;;0.73;77.47
12146;BME280;6136;47.032;15.398;2023-02-28T04:34:03;98455.66;;;0.75;76.93
12146;BME280;6136;47.032;15.398;2023-02-28T04:36:31;98453.91;;;0.75;78.62
12146;BME280;6136;47.032;15.398;2023-02-28T04:38:59;98450.47;;;0.73;78.58
12146;BME280;6136;47.032;15.398;2023-02-28T04:41:29;98459.06;;;0.82;76.82
12146;BME280;6136;47.032;15.398;2023-02-28T04:43:58;98458.25;;;0.78;76.98
12146;BME280;6136;47.032;15.398;2023-02-28T04:46:27;98455.59;;;0.84;77.48
12146;BME280;6136;47.032;15.398;2023-02-28T04:48:55;98449.56;;;0.79;76.85
12146;BME280;6136;47.032;15.398;2023-02-28T04:51:23;98462.53;;;0.84;75.65
12146;BME280;6136;47.032;15.398;2023-02-28T04:53:52;98462.53;;;0.84;77.05
12146;BME280;6136;47.032;15.398;2023-02-28T04:56:21;98454.66;;;0.91;77.54
12146;BME280;6136;47.032;15.398;2023-02-28T04:58:50;98459.88;;;0.91;78.24
12146;BME280;6136;47.032;15.398;2023-02-28T05:01:22;98457.19;;;0.99;78.10
12146;BME280;6136;47.032;15.398;2023-02-28T05:03:52;98451.84;;;1.11;76.91
12146;BME280;6136;47.032;15.398;2023-02-28T05:06:22;98442.25;;;1.11;76.82
12146;BME280;6136;47.032;15.398;2023-02-28T05:08:51;98447.47;;;1.11;76.22
12146;BME280;6136;47.032;15.398;2023-02-28T05:11:21;98455.28;;;1.14;75.56
12146;BME280;6136;47.032;15.398;2023-02-28T05:13:52;98447.44;;;1.16;75.48
12146;BME280;6136;47.032;15.398;2023-02-28T05:16:21;98442.16;;;1.21;74.40
12146;BME280;6136;47.032;15.398;2023-02-28T05:18:50;98447.47;;;1.11;75.36
12146;BME280;6136;47.032;15.398;2023-02-28T05:21:27;98446.56;;;1.17;76.47
12146;BME280;6136;47.032;15.398;2023-02-28T05:23:57;98449.25;;;1.09;76.46
12146;BME280;6136;47.032;15.398;2023-02-28T05:26:26;98452.03;;;0.90;75.07
12146;BME280;6136;47.032;15.398;2023-02-28T05:28:56;98452.91;;;0.92;75.10
12146;BME280;6136;47.032;15.398;2023-02-28T05:31:24;98457.16;;;1.00;74.43
12146;BME280;6136;47.032;15.398;2023-02-28T05:33:53;98462.41;;;0.97;74.48
12146;BME280;6136;47.032;15.398;2023-02-28T05:36:21;98457.16;;;1.00;74.54
12146;BME280;6136;47.032;15.398;2023-02-28T05:38:50;98463.34;;;0.90;73.57
12146;BME280;6136;47.032;15.398;2023-02-28T05:41:19;98460.81;;;0.84;73.15
12146;BME280;6136;47.032;15.398;2023-02-28T05:43:48;98464.41;;;0.74;73.17
12146;BME280;6136;47.032;15.398;2023-02-28T05:46:17;98463.50;;;0.75;72.39
12146;BME280;6136;47.032;15.398;2023-02-28T05:48:47;98473.16;;;0.62;73.73
12146;BME280;6136;47.032;15.398;2023-02-28T05:51:16;98474.03;;;0.63;73.40
12146;BME280;6136;47.032;15.398;2023-02-28T05:53:44;98463.63;;;0.60;72.41
12146;BME280;6136;47.032;15.398;2023-02-28T05:56:12;98479.25;;;0.66;72.95
12146;BME280;6136;47.032;15.398;2023-02-28T05:58:41;98480.13;;;0.63;72.65
12146;BME280;6136;47.032;15.398;2023-02-28T06:01:32;98482.66;;;0.71;72.45
12146;BME280;6136;47.032;15.398;2023-02-28T06:04:02;98487.81;;;0.77;72.85
12146;BME280;6136;47.032;15.398;2023-02-28T06:06:30;98486.06;;;0.79;72.84
12146;BME280;6136;47.032;15.398;2023-02-28T06:09:03;98492.91;;;0.95;72.66
12146;BME280;6136;47.032;15.398;2023-02-28T06:11:31;98488.47;;;1.02;73.20
12146;BME280;6136;47.032;15.398;2023-02-28T06:14:00;98495.53;;;0.89;72.54
12146;BME280;6136;47.032;15.398;2023-02-28T06:16:32;98498.19;;;0.83;72.64
12146;BME280;6136;47.032;15.398;2023-02-28T06:19:03;98501.72;;;0.79;73.10
12146;BME280;6136;47.032;15.398;2023-02-28T06:21:31;98506.03;;;0.82;72.73
12146;BME280;6136;47.032;15.398;2023-02-28T06:24:00;98509.50;;;0.84;72.99
12146;BME280;6136;47.032;15.398;2023-02-28T06:26:28;98502.63;;;0.75;72.62
12146;BME280;6136;47.032;15.398;2023-02-28T06:28:57;98513.97;;;0.68;72.42
12146;BME280;6136;47.032;15.398;2023-02-28T06:31:25;98518.31;;;0.67;72.60
12146;BME280;6136;47.032;15.398;2023-02-28T06:33:57;98516.59;;;0.68;73.01
12146;BME280;6136;47.032;15.398;2023-02-28T06:36:25;98524.38;;;0.74;73.45
12146;BME280;6136;47.032;15.398;2023-02-28T06:38:53;98522.66;;;0.71;73.62
12146;BME280;6136;47.032;15.398;2023-02-28T06:41:23;98526.84;;;0.89;74.14
12146;BME280;6136;47.032;15.398;2023-02-28T06:43:52;98528.63;;;0.86;73.44
12146;BME280;6136;47.032;15.398;2023-02-28T06:46:21;98534.72;;;0.85;73.67
12146;BME280;6136;47.032;15.398;2023-02-28T06:48:50;98529.50;;;0.88;74.54
12146;BME280;6136;47.032;15.398;2023-02-28T06:51:20;98539.00;;;0.93;73.82
12146;BME280;6136;47.032;15.398;2023-02-28T06:53:49;98540.75;;;0.91;72.94
12146;BME280;6136;47.032;15.398;2023-02-28T06:56:18;98540.75;;;0.93;72.94
12146;BME280;6136;47.032;15.398;2023-02-28T06:58:47;98533.66;;;1.04;73.15
12146;BME280;6136;47.032;15.398;2023-02-28T07:01:16;98547.59;;;1.06;72.37
12146;BME280;6136;47.032;15.398;2023-02-28T07:03:46;98545.09;;;0.95;71.92
12146;BME280;6136;47.032;15.398;2023-02-28T07:06:20;98539.88;;;0.91;72.69
12146;BME280;6136;47.032;15.398;2023-02-28T07:08:49;98550.31;;;0.92;72.70
12146;BME280;6136;47.032;15.398;2023-02-28T07:11:18;98539.00;;;0.93;72.54
12146;BME280;6136;47.032;15.398;2023-02-28T07:13:48;98541.53;;;1.02;72.27
12146;BME280;6136;47.032;15.398;2023-02-28T07:16:16;98545.03;;;1.01;72.64
12146;BME280;6136;47.032;15.398;2023-02-28T07:18:44;98542.44;;;1.00;73.38
12146;BME280;6136;47.032;15.398;2023-02-28T07:21:12;98552.78;;;1.09;73.09
12146;BME280;6136;47.032;15.398;2023-02-28T07:23:42;98546.78;;;0.99;72.49
12146;BME280;6136;47.032;15.398;2023-02-28T07:26:12;98546.75;;;1.02;71.90
12146;BME280;6136;47.032;15.398;2023-02-28T07:28:42;98545.84;;;1.08;72.79
12146;BME280;6136;47.032;15.398;2023-02-28T07:31:14;98545.75;;;1.19;72.31
12146;BME280;6136;47.032;15.398;2023-02-28T07:33:43;98556.25;;;1.11;72.01
12146;BME280;6136;47.032;15.398;2023-02-28T07:36:14;98554.53;;;1.05;73.44
12146;BME280;6136;47.032;15.398;2023-02-28T07:38:46;98555.34;;;1.13;73.84
12146;BME280;6136;47.032;15.398;2023-02-28T07:41:15;98557.97;;;1.13;73.11
12146;BME280;6136;47.032;15.398;2023-02-28T07:43:43;98555.34;;;1.16;73.19
12146;BME280;6136;47.032;15.398;2023-02-28T07:46:14;98568.38;;;1.18;73.33
12146;BME280;6136;47.032;15.398;2023-02-28T07:48:43;98567.47;;;1.21;72.58
12146;BME280;6136;47.032;15.398;2023-02-28T07:51:12;98558.69;;;1.28;72.71
12146;BME280;6136;47.032;15.398;2023-02-28T07:53:41;98567.50;;;1.17;73.35
12146;BME280;6136;47.032;15.398;2023-02-28T07:56:10;98570.91;;;1.26;72.96
12146;BME280;6136;47.032;15.398;2023-02-28T07:58:38;98562.97;;;1.36;72.84
12146;BME280;6136;47.032;15.398;2023-02-28T08:01:07;98560.28;;;1.44;72.96
12146;BME280;6136;47.032;15.398;2023-02-28T08:03:37;98570.56;;;1.59;72.68
12146;BME280;6136;47.032;15.398;2023-02-28T08:06:08;98569.75;;;1.55;72.29
12146;BME280;6136;47.032;15.398;2023-02-28T08:08:42;98568.97;;;1.46;71.65
12146;BME280;6136;47.032;15.398;2023-02-28T08:11:12;98580.34;;;1.40;73.00
12146;BME280;6136;47.032;15.398;2023-02-28T08:13:40;98577.69;;;1.45;72.26
12146;BME280;6136;47.032;15.398;2023-02-28T08:16:11;98572.44;;;1.48;72.15
12146;BME280;6136;47.032;15.398;2023-02-28T08:18:42;98578.50;;;1.50;71.89
12146;BME280;6136;47.032;15.398;2023-02-28T08:21:10;98575.00;;;1.54;71.40
12146;BME280;6136;47.032;15.398;2023-02-28T08:23:39;98576.59;;;1.66;72.32
12146;BME280;6136;47.032;15.398;2023-02-28T08:26:07;98579.22;;;1.64;71.26
12146;BME280;6136;47.032;15.398;2023-02-28T08:28:37;98577.44;;;1.69;71.97
12146;BME280;6136;47.032;15.398;2023-02-28T08:31:10;98577.38;;;1.72;70.55
12146;BME280;6136;47.032;15.398;2023-02-28T08:33:39;98575.47;;;1.86;70.91
12146;BME280;6136;47.032;15.398;2023-02-28T08:36:08;98573.69;;;1.91;69.60
12146;BME280;6136;47.032;15.398;2023-02-28T08:38:37;98573.81;;;1.79;68.88
12146;BME280;6136;47.032;15.398;2023-02-28T08:41:07;98578.13;;;1.85;70.13
12146;BME280;6136;47.032;15.398;2023-02-28T08:43:37;98577.19;;;1.92;70.75
12146;BME280;6136;47.032;15.398;2023-02-28T08:46:06;98583.31;;;1.89;69.90
12146;BME280;6136;47.032;15.398;2023-02-28T08:48:35;98576.16;;;2.04;70.76
12146;BME280;6136;47.032;15.398;2023-02-28T08:51:07;98569.25;;;2.00;69.86
12146;BME280;6136;47.032;15.398;2023-02-28T08:53:37;98577.91;;;2.05;69.06
12146;BME280;6136;47.032;15.398;2023-02-28T08:56:07;98578.69;;;2.10;69.98
12146;BME280;6136;47.032;15.398;2023-02-28T08:58:37;98582.16;;;2.12;68.14
12146;BME280;6136;47.032;15.398;2023-02-28T09:01:11;98582.19;;;2.09;67.83
12146;BME280;6136;47.032;15.398;2023-02-28T09:03:40;98586.50;;;2.13;68.71
12146;BME280;6136;47.032;15.398;2023-02-28T09:06:10;98580.25;;;2.23;69.45
12146;BME280;6136;47.032;15.398;2023-02-28T09:08:38;98588.16;;;2.20;67.58
12146;BME280;6136;47.032;15.398;2023-02-28T09:11:08;98580.31;;;2.20;67.81
12146;BME280;6136;47.032;15.398;2023-02-28T09:13:38;98578.59;;;2.16;69.32
12146;BME280;6136;47.032;15.398;2023-02-28T09:16:09;98582.13;;;2.15;68.50
12146;BME280;6136;47.032;15.398;2023-02-28T09:18:38;98583.81;;;2.19;68.29
12146;BME280;6136;47.032;15.398;2023-02-28T09:21:08;98583.78;;;2.22;67.67
12146;BME280;6136;47.032;15.398;2023-02-28T09:23:37;98584.47;;;2.36;68.42
12146;BME280;6136;47.032;15.398;2023-02-28T09:26:06;98593.78;;;2.55;67.38
12146;BME280;6136;47.032;15.398;2023-02-28T09:28:34;98585.19;;;2.47;68.83
12146;BME280;6136;47.032;15.398;2023-02-28T09:31:04;98580.13;;;2.35;67.95
12146;BME280;6136;47.032;15.398;2023-02-28T09:33:32;98593.81;;;2.52;67.64
12146;BME280;6136;47.032;15.398;2023-02-28T09:36:03;98592.13;;;2.48;67.56
12146;BME280;6136;47.032;15.398;2023-02-28T09:38:31;98594.75;;;2.48;66.71
12146;BME280;6136;47.032;15.398;2023-02-28T09:41:01;98591.38;;;2.42;68.03
12146;BME280;6136;47.032;15.398;2023-02-28T09:43:34;98594.56;;;2.62;66.50
12146;BME280;6136;47.032;15.398;2023-02-28T09:46:14;98594.56;;;2.62;66.63
12146;BME280;6136;47.032;15.398;2023-02-28T09:48:47;98593.47;;;2.77;66.87
12146;BME280;6136;47.032;15.398;2023-02-28T09:51:29;98593.78;;;2.57;66.88
12146;BME280;6136;47.032;15.398;2023-02-28T09:53:58;98586.78;;;2.59;67.40
12146;BME280;6136;47.032;15.398;2023-02-28T09:56:31;98593.56;;;2.70;67.09
12146;BME280;6136;47.032;15.398;2023-02-28T09:59:04;98589.94;;;2.81;66.17
12146;BME280;6136;47.032;15.398;2023-02-28T10:01:40;98587.03;;;2.99;65.85
12146;BME280;6136;47.032;15.398;2023-02-28T10:04:16;98588.06;;;2.89;65.52
12146;BME280;6136;47.032;15.398;2023-02-28T10:06:52;98584.09;;;2.62;67.44
12146;BME280;6136;47.032;15.398;2023-02-28T10:09:24;98588.31;;;2.73;68.31
12146;BME280;6136;47.032;15.398;2023-02-28T10:11:56;98589.00;;;2.83;67.24
12146;BME280;6136;47.032;15.398;2023-02-28T10:14:28;98577.59;;;2.89;65.68
12146;BME280;6136;47.032;15.398;2023-02-28T10:16:59;98581.31;;;3.28;65.04
12146;BME280;6136;47.032;15.398;2023-02-28T10:19:33;98569.63;;;3.47;64.78
12146;BME280;6136;47.032;15.398;2023-02-28T10:22:05;98577.38;;;3.53;63.27
12146;BME280;6136;47.032;15.398;2023-02-28T10:24:39;98574.75;;;3.55;64.15
12146;BME280;6136;47.032;15.398;2023-02-28T10:27:14;98573.22;;;3.87;63.73
12146;BME280;6136;47.032;15.398;2023-02-28T10:29:44;98575.38;;;4.10;62.43
12146;BME280;6136;47.032;15.398;2023-02-28T10:32:16;98571.13;;;4.05;63.11
12146;BME280;6136;47.032;15.398;2023-02-28T10:34:51;98569.81;;;4.27;61.93
12146;BME280;6136;47.032;15.398;2023-02-28T10:37:20;98571.97;;;4.48;59.85
12146;BME280;6136;47.032;15.398;2023-02-28T10:39:48;98567.78;;;4.40;59.79
12146;BME280;6136;47.032;15.398;2023-02-28T10:42:23;98568.28;;;4.15;61.74
12146;BME280;6136;47.032;15.398;2023-02-28T10:45:11;98567.56;;;4.50;59.29
12146;BME280;6136;47.032;15.398;2023-02-28T10:47:51;98564.75;;;4.58;58.82
12146;BME280;6136;47.032;15.398;2023-02-28T10:50:30;98560.09;;;4.30;61.88
12146;BME280;6136;47.032;15.398;2023-02-28T10:53:22;98560.94;;;4.71;58.91
12146;BME280;6136;47.032;15.398;2023-02-28T10:55:57;98564.31;;;4.38;59.06
12146;BME280;6136;47.032;15.398;2023-02-28T10:58:29;98554.13;;;4.24;61.89
12146;BME280;6136;47.032;15.398;2023-02-28T11:00:58;98556.34;;;4.42;61.83
12146;BME280;6136;47.032;15.398;2023-02-28T11:03:33;98556.75;;;4.64;59.76
12146;BME280;6136;47.032;15.398;2023-02-28T11:06:07;98543.78;;;4.93;58.34
12146;BME280;6136;47.032;15.398;2023-02-28T11:08:44;98555.31;;;4.88;57.58
12146;BME280;6136;47.032;15.398;2023-02-28T11:11:13;98541.66;;;4.74;58.24
12146;BME280;6136;47.032;15.398;2023-02-28T11:13:44;98544.69;;;4.92;58.69
12146;BME280;6136;47.032;15.398;2023-02-28T11:16:14;98531.63;;;5.25;58.51
12146;BME280;6136;47.032;15.398;2023-02-28T11:18:48;98534.00;;;5.34;59.22
12146;BME280;6136;47.032;15.398;2023-02-28T11:21:20;98532.28;;;5.33;58.41
12146;BME280;6136;47.032;15.398;2023-02-28T11:23:53;98536.19;;;5.51;57.82
12146;BME280;6136;47.032;15.398;2023-02-28T11:26:36;98523.19;;;5.46;57.58
12146;BME280;6136;47.032;15.398;2023-02-28T11:29:12;98524.31;;;5.68;56.58
12146;BME280;6136;47.032;15.398;2023-02-28T11:31:43;98518.25;;;6.28;53.24
12146;BME280;6136;47.032;15.398;2023-02-28T11:34:30;98516.16;;;6.67;55.27
12146;BME280;6136;47.032;15.398;2023-02-28T11:36:59;98514.75;;;6.83;52.78
12146;BME280;6136;47.032;15.398;2023-02-28T11:39:32;98504.50;;;7.02;51.77
12146;BME280;6136;47.032;15.398;2023-02-28T11:42:23;98516.06;;;6.42;53.39
12146;BME280;6136;47.032;15.398;2023-02-28T11:45:04;98511.91;;;6.06;54.13
12146;BME280;6136;47.032;15.398;2023-02-28T11:47:44;98510.84;;;6.11;55.21
12146;BME280;6136;47.032;15.398;2023-02-28T11:50:38;98512.69;;;6.08;54.93
12146;BME280;6136;47.032;15.398;2023-02-28T11:53:19;98506.44;;;6.12;55.37
12146;BME280;6136;47.032;15.398;2023-02-28T11:55:52;98504.50;;;6.18;54.64
12146;BME280;6136;47.032;15.398;2023-02-28T11:58:42;98504.47;;;6.76;54.76
12146;BME280;6136;47.032;15.398;2023-02-28T12:01:25;98500.13;;;6.47;54.55
12146;BME280;6136;47.032;15.398;2023-02-28T12:04:09;98492.69;;;6.59;52.96
12146;BME280;6136;47.032;15.398;2023-02-28T12:06:45;98494.94;;;6.72;52.08
12146;BME280;6136;47.032;15.398;2023-02-28T12:09:40;98488.31;;;6.31;53.73
12146;BME280;6136;47.032;15.398;2023-02-28T12:12:22;98492.34;;;5.83;55.26
12146;BME280;6136;47.032;15.398;2023-02-28T12:17:55;98485.75;;;6.29;54.27
12146;BME280;6136;47.032;15.398;2023-02-28T12:20:30;98490.63;;;6.13;55.25
12146;BME280;6136;47.032;15.398;2023-02-28T12:23:17;98485.28;;;6.44;54.11
12146;BME280;6136;47.032;15.398;2023-02-28T12:26:00;98477.50;;;6.12;55.04
12146;BME280;6136;47.032;15.398;2023-02-28T12:28:33;98476.34;;;6.22;55.96
12146;BME280;6136;47.032;15.398;2023-02-28T12:31:12;98472.50;;;6.03;55.09
12146;BME280;6136;47.032;15.398;2023-02-28T12:33:45;98476.56;;;6.42;54.46
12146;BME280;6136;47.032;15.398;2023-02-28T12:36:17;98470.09;;;6.52;52.96
12146;BME280;6136;47.032;15.398;2023-02-28T12:38:49;98451.47;;;6.31;52.27
12146;BME280;6136;47.032;15.398;2023-02-28T12:41:26;98473.19;;;6.09;54.47
12146;BME280;6136;47.032;15.398;2023-02-28T12:44:00;98465.84;;;6.48;53.22
12146;BME280;6136;47.032;15.398;2023-02-28T12:46:32;98459.16;;;6.66;52.70
12146;BME280;6136;47.032;15.398;2023-02-28T12:49:05;98459.16;;;6.66;52.52
12146;BME280;6136;47.032;15.398;2023-02-28T12:51:36;98461.34;;;6.52;53.82
12146;BME280;6136;47.032;15.398;2023-02-28T12:54:13;98454.91;;;6.88;52.30
12146;BME280;6136;47.032;15.398;2023-02-28T12:56:49;98447.84;;;6.62;53.01
12146;BME280;6136;47.032;15.398;2023-02-28T12:59:25;98454.38;;;7.04;52.13
12146;BME280;6136;47.032;15.398;2023-02-28T13:11:38;98451.38;;;6.06;53.81
12146;BME280;6136;47.032;15.398;2023-02-28T13:14:28;98449.91;;;5.96;56.38
12146;BME280;6136;47.032;15.398;2023-02-28T13:17:04;98441.91;;;6.56;54.43
12146;BME280;6136;47.032;15.398;2023-02-28T13:19:40;98435.44;;;6.66;54.13
12146;BME280;6136;47.032;15.398;2023-02-28T13:22:17;98434.50;;;6.67;55.17
12146;BME280;6136;47.032;15.398;2023-02-28T13:24:48;98439.41;;;7.04;51.59
12146;BME280;6136;47.032;15.398;2023-02-28T13:27:24;98428.84;;;6.79;51.73
12146;BME280;6136;47.032;15.398;2023-02-28T13:30:00;98445.66;;;5.92;56.20
12146;BME280;6136;47.032;15.398;2023-02-28T13:32:37;98438.28;;;6.32;53.79
12146;BME280;6136;47.032;15.398;2023-02-28T13:38:22;98429.06;;;6.45;53.85
12146;BME280;6136;47.032;15.398;2023-02-28T13:40:51;98432.28;;;6.55;55.01
12146;BME280;6136;47.032;15.398;2023-02-28T13:44:01;98426.78;;;6.89;53.58
12146;BME280;6136;47.032;15.398;2023-02-28T13:46:30;98419.56;;;6.68;55.36
12146;BME280;6136;47.032;15.398;2023-02-28T13:49:19;98429.75;;;6.24;57.00
12146;BME280;6136;47.032;15.398;2023-02-28T13:52:02;98418.53;;;6.45;56.84
12146;BME280;6136;47.032;15.398;2023-02-28T13:54:44;98423.81;;;6.45;55.40
12146;BME280;6136;47.032;15.398;2023-02-28T13:57:28;98414.91;;;7.02;53.33
12146;BME280;6136;47.032;15.398;2023-02-28T14:00:15;98421.19;;;7.94;50.83
12146;BME280;6136;47.032;15.398;2023-02-28T14:03:07;98413.97;;;8.44;49.54